Time;durP1;ratioP1;P1;durP2;ratioP2;P2;SDS_P1;SDS_P2;PMS_P1;PMS_P2;Temp;Humidity;BMP_temperature;BMP_pressure;BME280_temperature;BME280_humidity;BME280_pressure;Samples;Min_cycle;Max_cycle;Signal;HPM_P1;HPM_P2
2023/12/25 00:01:20;;;;;;;7.80;4.50;;;;;;;9.82;46.86;100843.96;107151;1257;25337;-53
2023/12/25 00:03:47;;;;;;;6.40;5.00;;;;;;;9.86;46.84;100848.58;105982;1273;1004106;-53
2023/12/25 00:06:18;;;;;;;6.70;4.80;;;;;;;9.93;46.91;100844.66;106356;1256;1003076;-53
2023/12/25 00:08:48;;;;;;;8.70;5.10;;;;;;;9.91;46.98;100847.45;107093;1251;22533;-53
2023/12/25 00:11:15;;;;;;;7.10;5.00;;;;;;;9.99;47.05;100849.05;106968;1258;26683;-54
2023/12/25 00:13:43;;;;;;;8.90;5.60;;;;;;;10.02;47.04;100838.09;106344;1264;1003527;-54
2023/12/25 00:16:10;;;;;;;8.50;4.90;;;;;;;10.00;47.21;100836.20;107080;1255;25395;-53
2023/12/25 00:18:37;;;;;;;6.00;4.70;;;;;;;10.00;47.20;100830.31;106392;1258;1003662;-54
2023/12/25 00:21:04;;;;;;;5.80;4.70;;;;;;;10.05;47.09;100821.91;107106;1273;25488;-55
2023/12/25 00:23:31;;;;;;;5.90;4.60;;;;;;;10.06;46.98;100817.88;106995;1270;25349;-54
2023/12/25 00:25:58;;;;;;;9.10;5.80;;;;;;;10.06;46.84;100816.69;106939;1267;23205;-54
2023/12/25 00:28:25;;;;;;;7.40;5.10;;;;;;;10.04;46.89;100805.81;107141;1257;25365;-54
2023/12/25 00:30:52;;;;;;;9.00;6.10;;;;;;;10.01;46.96;100803.94;106328;1265;1004908;-54
2023/12/25 00:33:19;;;;;;;7.20;5.70;;;;;;;9.98;47.02;100795.34;107120;1258;25337;-54
2023/12/25 00:35:47;;;;;;;6.80;5.10;;;;;;;9.96;47.37;100788.10;107040;1264;25325;-55
2023/12/25 00:38:14;;;;;;;9.30;4.70;;;;;;;9.94;47.88;100781.02;107094;1256;25319;-54
2023/12/25 00:40:42;;;;;;;10.10;5.50;;;;;;;9.94;48.50;100775.67;107129;1251;25478;-54
2023/12/25 00:43:09;;;;;;;9.40;4.90;;;;;;;9.96;48.86;100774.23;107089;1257;25328;-53
2023/12/25 00:45:36;;;;;;;12.10;4.60;;;;;;;9.99;49.37;100776.09;106996;1263;25488;-54
2023/12/25 00:48:04;;;;;;;11.50;5.30;;;;;;;10.03;49.95;100774.80;107173;1257;25353;-53
2023/12/25 00:50:31;;;;;;;6.50;3.40;;;;;;;10.09;50.33;100778.52;107171;1257;22643;-54
2023/12/25 00:52:58;;;;;;;6.60;3.20;;;;;;;10.15;50.68;100784.98;107072;1259;25474;-54
2023/12/25 00:55:25;;;;;;;8.40;3.70;;;;;;;10.22;50.97;100784.01;106293;1263;1003773;-53
2023/12/25 00:57:52;;;;;;;8.00;3.50;;;;;;;10.28;51.22;100786.13;107129;1257;25350;-53
2023/12/25 01:00:20;;;;;;;4.90;3.00;;;;;;;10.34;51.42;100783.56;107095;1257;25324;-54
2023/12/25 01:02:49;;;;;;;5.60;3.40;;;;;;;10.41;51.55;100780.31;107140;1251;25274;-54
2023/12/25 01:05:17;;;;;;;6.30;3.30;;;;;;;10.54;51.49;100773.27;107049;1256;25360;-54
2023/12/25 01:07:44;;;;;;;4.10;3.30;;;;;;;10.66;51.43;100764.86;107021;1257;25385;-54
2023/12/25 01:10:11;;;;;;;9.60;3.20;;;;;;;10.73;51.35;100768.87;107129;1251;25356;-53
2023/12/25 01:12:39;;;;;;;5.80;3.50;;;;;;;10.79;51.36;100766.82;107240;1257;25364;-54
2023/12/25 01:15:06;;;;;;;7.90;3.70;;;;;;;10.85;51.31;100757.48;106898;1260;25485;-54
2023/12/25 01:17:33;;;;;;;6.10;3.40;;;;;;;10.85;51.28;100758.18;107142;1254;25328;-54
2023/12/25 01:20:01;;;;;;;7.50;3.90;;;;;;;10.78;51.34;100759.22;106818;1263;25474;-55
2023/12/25 01:22:29;;;;;;;6.30;4.30;;;;;;;10.79;51.09;100751.73;107101;1260;25376;-53
2023/12/25 01:24:56;;;;;;;5.20;3.80;;;;;;;10.80;50.95;100745.98;107147;1251;25337;-53
2023/12/25 01:27:23;;;;;;;5.40;3.80;;;;;;;10.79;50.85;100749.98;106810;1261;25388;-53
2023/12/25 01:29:51;;;;;;;5.40;3.50;;;;;;;10.79;50.89;100748.41;107132;1266;22533;-54
2023/12/25 01:32:19;;;;;;;7.70;3.70;;;;;;;10.80;50.84;100747.54;107125;1257;25356;-54
2023/12/25 01:34:46;;;;;;;6.10;3.80;;;;;;;10.79;50.86;100749.12;106779;1272;25474;-54
2023/12/25 01:37:13;;;;;;;5.60;3.80;;;;;;;10.81;50.76;100742.64;107169;1264;24237;-53
2023/12/25 01:39:40;;;;;;;5.00;3.40;;;;;;;10.81;50.84;100746.83;107090;1258;25411;-54
2023/12/25 01:42:07;;;;;;;6.20;4.00;;;;;;;10.81;50.80;100745.25;107103;1267;25328;-53
2023/12/25 01:44:34;;;;;;;6.60;3.80;;;;;;;10.81;50.79;100739.52;107049;1266;25414;-54
2023/12/25 01:47:02;;;;;;;6.40;3.90;;;;;;;10.81;50.79;100735.18;107080;1254;25356;-54
2023/12/25 01:49:29;;;;;;;5.70;4.80;;;;;;;10.82;51.04;100736.73;106862;1257;23346;-54
2023/12/25 01:51:56;;;;;;;5.00;4.30;;;;;;;10.80;51.10;100737.80;107071;1254;22591;-54
2023/12/25 01:54:23;;;;;;;5.90;4.30;;;;;;;10.79;51.23;100738.70;107108;1257;25353;-53
2023/12/25 01:56:50;;;;;;;5.90;3.80;;;;;;;11.02;50.84;100734.51;106997;1257;25363;-53
2023/12/25 01:59:17;;;;;;;4.70;3.70;;;;;;;10.80;51.33;100732.95;107085;1266;25446;-53
2023/12/25 02:01:44;;;;;;;4.30;3.70;;;;;;;10.78;51.47;100730.06;107069;1254;25340;-53
2023/12/25 02:04:11;;;;;;;4.80;3.20;;;;;;;10.79;51.47;100729.87;107127;1257;25436;-54
2023/12/25 02:06:38;;;;;;;5.70;3.50;;;;;;;10.78;51.57;100721.21;106935;1257;335540;-53
2023/12/25 02:09:05;;;;;;;5.20;3.80;;;;;;;10.77;51.61;100717.59;107103;1260;25414;-53
2023/12/25 02:11:33;;;;;;;4.50;3.80;;;;;;;10.77;51.77;100714.81;106973;1257;25325;-54
2023/12/25 02:14:01;;;;;;;4.70;4.20;;;;;;;10.77;51.82;100712.21;107081;1252;25521;-53
2023/12/25 02:16:28;;;;;;;4.40;3.40;;;;;;;10.77;51.97;100706.14;107188;1257;23938;-53
2023/12/25 02:18:55;;;;;;;5.20;3.90;;;;;;;10.77;52.12;100705.80;106970;1254;25236;-54
2023/12/25 02:21:23;;;;;;;5.60;4.20;;;;;;;10.77;52.35;100706.66;107107;1251;22526;-54
2023/12/25 02:23:52;;;;;;;5.20;4.00;;;;;;;10.78;52.50;100708.20;106729;1261;25343;-53
2023/12/25 02:26:20;;;;;;;4.70;3.90;;;;;;;10.79;52.49;100704.70;106204;1256;1003579;-53
2023/12/25 02:28:47;;;;;;;5.20;4.00;;;;;;;10.79;52.67;100696.55;106829;1261;25352;-53
2023/12/25 02:31:14;;;;;;;6.90;4.20;;;;;;;10.80;52.83;100690.44;107110;1254;25357;-54
2023/12/25 02:33:40;;;;;;;6.30;4.30;;;;;;;10.81;52.85;100685.57;106375;1267;1003053;-54
2023/12/25 02:36:08;;;;;;;5.50;4.20;;;;;;;10.83;52.79;100677.54;106825;1260;24194;-54
2023/12/25 02:38:35;;;;;;;4.60;4.00;;;;;;;10.84;52.85;100670.57;106800;1260;24256;-54
2023/12/25 02:41:03;;;;;;;4.50;3.80;;;;;;;10.85;52.92;100665.52;107176;1260;24377;-54
2023/12/25 02:43:30;;;;;;;8.50;4.40;;;;;;;10.86;52.85;100658.73;107122;1260;25491;-54
2023/12/25 02:45:57;;;;;;;7.20;4.40;;;;;;;10.85;52.96;100655.97;107087;1257;25338;-54
2023/12/25 02:48:25;;;;;;;6.50;4.20;;;;;;;10.86;53.01;100657.00;106367;1257;1003641;-54
2023/12/25 02:50:52;;;;;;;5.70;4.20;;;;;;;10.88;53.13;100653.83;106823;1257;25332;-54
2023/12/25 02:53:19;;;;;;;6.30;4.40;;;;;;;10.88;53.13;100643.20;106699;1260;25335;-54
2023/12/25 02:55:46;;;;;;;7.80;4.70;;;;;;;10.90;53.17;100635.53;106745;1259;25408;-54
2023/12/25 02:58:13;;;;;;;5.80;4.30;;;;;;;10.91;53.33;100637.07;106791;1258;25342;-54
2023/12/25 03:00:40;;;;;;;6.20;4.70;;;;;;;10.88;53.42;100631.59;106728;1260;25411;-54
2023/12/25 03:03:07;;;;;;;5.40;4.60;;;;;;;10.90;53.59;100615.23;106110;1260;1003428;-53
2023/12/25 03:05:34;;;;;;;6.30;4.40;;;;;;;11.06;53.33;100612.71;105991;1270;1002876;-54
2023/12/25 03:08:02;;;;;;;6.40;4.20;;;;;;;11.02;53.54;100610.92;106669;1262;25334;-54
2023/12/25 03:10:28;;;;;;;7.10;4.70;;;;;;;11.00;53.70;100605.94;106643;1264;25408;-54
2023/12/25 03:12:56;;;;;;;7.70;4.70;;;;;;;11.01;53.55;100603.48;106644;1267;25424;-54
2023/12/25 03:15:23;;;;;;;8.40;4.50;;;;;;;11.00;53.69;100593.44;106765;1258;25325;-54
2023/12/25 03:17:50;;;;;;;5.10;4.40;;;;;;;11.01;53.70;100590.46;106757;1257;25353;-54
2023/12/25 03:20:17;;;;;;;4.80;4.00;;;;;;;11.02;53.53;100585.77;106811;1257;25491;-54
2023/12/25 03:22:44;;;;;;;6.60;4.80;;;;;;;11.02;53.51;100581.77;107139;1259;25356;-54
2023/12/25 03:25:11;;;;;;;6.60;5.10;;;;;;;11.02;53.38;100574.14;107140;1258;25337;-54
2023/12/25 03:27:38;;;;;;;6.80;4.70;;;;;;;11.01;53.48;100576.42;107107;1260;25328;-52
2023/12/25 03:30:06;;;;;;;5.00;4.20;;;;;;;11.00;53.44;100572.09;107074;1257;25347;-53
2023/12/25 03:32:34;;;;;;;7.90;4.80;;;;;;;11.01;53.46;100571.22;107058;1260;22537;-53
2023/12/25 03:35:02;;;;;;;4.80;4.20;;;;;;;10.86;53.76;100577.48;107143;1257;25332;-53
2023/12/25 03:37:30;;;;;;;5.30;4.50;;;;;;;10.82;53.87;100570.83;106737;1274;25386;-53
2023/12/25 03:39:57;;;;;;;6.40;4.50;;;;;;;10.98;53.37;100570.08;106408;1257;1002489;-53
2023/12/25 03:42:24;;;;;;;7.40;4.70;;;;;;;11.02;53.23;100576.23;107111;1257;25328;-54
2023/12/25 03:44:51;;;;;;;6.60;4.50;;;;;;;11.02;53.16;100583.34;107014;1258;25389;-55
2023/12/25 03:47:20;;;;;;;7.20;4.70;;;;;;;11.01;53.10;100584.57;107128;1254;25328;-53
2023/12/25 03:49:47;;;;;;;4.90;4.10;;;;;;;11.02;52.98;100590.64;106907;1269;25484;-53
2023/12/25 03:52:14;;;;;;;5.40;4.90;;;;;;;11.01;52.95;100595.33;107187;1257;25363;-53
2023/12/25 03:54:41;;;;;;;5.40;4.30;;;;;;;11.02;52.87;100596.52;107036;1257;25481;-53
2023/12/25 03:57:08;;;;;;;5.80;4.50;;;;;;;11.02;52.77;100590.64;107028;1257;25372;-53
2023/12/25 03:59:35;;;;;;;6.00;4.70;;;;;;;11.02;52.78;100586.11;106815;1259;25414;-53
2023/12/25 04:02:03;;;;;;;6.00;4.80;;;;;;;11.02;52.75;100589.59;106359;1266;1003207;-54
2023/12/25 04:04:30;;;;;;;4.90;4.40;;;;;;;11.03;52.70;100591.80;107109;1258;25353;-54
2023/12/25 04:06:57;;;;;;;5.40;4.30;;;;;;;11.03;52.63;100584.87;107032;1254;25562;-55
2023/12/25 04:09:24;;;;;;;5.60;4.60;;;;;;;11.03;52.63;100587.63;107027;1256;25334;-55
2023/12/25 04:11:51;;;;;;;5.70;4.50;;;;;;;11.03;52.72;100576.00;107196;1256;23408;-55
2023/12/25 04:14:19;;;;;;;6.40;4.70;;;;;;;11.04;52.57;100572.54;107079;1256;22534;-55
2023/12/25 04:16:47;;;;;;;4.70;3.90;;;;;;;11.03;52.64;100571.33;107103;1256;25484;-55
2023/12/25 04:19:14;;;;;;;5.10;4.60;;;;;;;11.03;52.65;100571.15;106869;1261;25356;-54
2023/12/25 04:21:41;;;;;;;5.00;4.50;;;;;;;11.03;52.64;100573.23;107197;1257;25471;-54
2023/12/25 04:24:08;;;;;;;6.40;5.20;;;;;;;11.03;52.76;100568.90;106877;1260;25347;-54
2023/12/25 04:26:35;;;;;;;6.00;4.40;;;;;;;11.04;52.66;100566.27;107208;1257;25353;-54
2023/12/25 04:29:02;;;;;;;7.70;4.90;;;;;;;11.04;52.62;100564.36;106412;1251;1003361;-54
2023/12/25 04:31:30;;;;;;;5.00;4.40;;;;;;;11.05;52.69;100555.15;107128;1256;25372;-53
2023/12/25 04:33:57;;;;;;;7.90;5.40;;;;;;;11.06;52.62;100557.02;107068;1260;25331;-54
2023/12/25 04:36:25;;;;;;;7.30;4.60;;;;;;;11.07;52.57;100549.52;107122;1251;25363;-54
2023/12/25 04:38:52;;;;;;;9.40;4.50;;;;;;;11.08;52.60;100551.77;107139;1256;23874;-54
2023/12/25 04:41:22;;;;;;;7.40;5.00;;;;;;;11.08;52.65;100550.19;107220;1257;25338;-54
2023/12/25 04:43:53;;;;;;;7.90;4.90;;;;;;;11.07;52.78;100548.48;106341;1254;1003043;-54
2023/12/25 04:46:20;;;;;;;6.20;4.80;;;;;;;11.08;52.65;100547.41;107092;1261;22523;-54
2023/12/25 04:48:48;;;;;;;5.70;4.40;;;;;;;11.09;52.70;100545.99;107096;1257;22617;-54
2023/12/25 04:51:15;;;;;;;5.90;4.60;;;;;;;11.11;52.60;100540.21;106426;1251;1003042;-53
2023/12/25 04:53:43;;;;;;;6.10;4.90;;;;;;;11.11;52.51;100537.77;106330;1257;1002904;-54
2023/12/25 04:56:10;;;;;;;5.70;5.10;;;;;;;11.12;52.39;100528.73;106823;1261;25376;-54
2023/12/25 04:58:38;;;;;;;6.80;4.70;;;;;;;11.13;52.49;100530.79;106839;1259;25369;-54
2023/12/25 05:01:05;;;;;;;5.40;4.80;;;;;;;11.13;52.38;100531.13;106579;1259;22551;-54
2023/12/25 05:03:32;;;;;;;8.10;4.90;;;;;;;11.14;52.34;100523.80;106691;1259;24252;-54
2023/12/25 05:05:59;;;;;;;6.30;5.00;;;;;;;11.14;52.34;100519.64;105960;1262;1003837;-54
2023/12/25 05:08:27;;;;;;;14.00;4.90;;;;;;;11.15;52.38;100521.34;106634;1259;25393;-53
2023/12/25 05:10:55;;;;;;;5.90;4.80;;;;;;;11.15;52.31;100517.70;106691;1262;25334;-54
2023/12/25 05:13:22;;;;;;;6.40;4.40;;;;;;;11.15;52.36;100509.20;106715;1260;25462;-54
2023/12/25 05:15:49;;;;;;;5.70;4.60;;;;;;;11.15;52.28;100500.16;106809;1256;25341;-54
2023/12/25 05:18:16;;;;;;;6.60;4.60;;;;;;;11.15;52.20;100493.73;106677;1259;25453;-53
2023/12/25 05:20:43;;;;;;;6.80;4.90;;;;;;;11.15;52.26;100499.12;106744;1257;25386;-53
2023/12/25 05:23:10;;;;;;;9.30;4.90;;;;;;;11.15;52.25;100504.86;106791;1257;25363;-54
2023/12/25 05:25:38;;;;;;;6.70;5.30;;;;;;;11.16;52.32;100508.48;106047;1256;1002653;-53
2023/12/25 05:28:05;;;;;;;5.70;4.80;;;;;;;11.17;52.15;100510.02;106990;1256;25490;-53
2023/12/25 05:30:32;;;;;;;6.70;5.20;;;;;;;11.18;52.05;100518.50;106054;1260;1003394;-54
2023/12/25 05:32:59;;;;;;;7.00;5.60;;;;;;;11.18;52.08;100515.36;106866;1257;25414;-54
2023/12/25 05:35:26;;;;;;;5.60;4.70;;;;;;;11.18;52.10;100515.70;107104;1257;25328;-53
2023/12/25 05:37:53;;;;;;;9.90;5.50;;;;;;;11.18;52.02;100516.40;106868;1272;25459;-54
2023/12/25 05:40:21;;;;;;;7.40;5.40;;;;;;;11.18;52.06;100509.82;107162;1266;25337;-54
2023/12/25 05:42:48;;;;;;;9.60;5.30;;;;;;;11.18;52.19;100499.39;107048;1257;25356;-54
2023/12/25 05:45:16;;;;;;;6.30;5.10;;;;;;;11.18;52.23;100499.02;107166;1253;25356;-54
2023/12/25 05:47:42;;;;;;;6.80;5.20;;;;;;;11.18;52.27;100493.14;106719;1266;25363;-55
2023/12/25 05:50:09;;;;;;;7.90;5.30;;;;;;;11.18;52.36;100498.34;107075;1262;22628;-54
2023/12/25 05:52:36;;;;;;;6.60;4.90;;;;;;;11.20;52.27;100488.58;107100;1257;25362;-54
2023/12/25 05:55:04;;;;;;;5.30;4.80;;;;;;;11.20;52.22;100491.86;107095;1257;25363;-56
2023/12/25 05:57:30;;;;;;;5.60;4.60;;;;;;;11.21;52.12;100492.71;107068;1253;25343;-54
2023/12/25 05:59:57;;;;;;;7.00;5.10;;;;;;;11.22;51.96;100493.54;106331;1257;1002934;-54
2023/12/25 06:02:24;;;;;;;10.60;5.10;;;;;;;11.24;51.97;100483.25;107069;1253;25322;-54
2023/12/25 06:04:52;;;;;;;6.00;4.60;;;;;;;11.26;51.80;100469.13;106926;1256;25337;-54
2023/12/25 06:07:19;;;;;;;5.40;4.60;;;;;;;11.27;51.68;100457.12;107167;1260;25404;-54
2023/12/25 06:09:46;;;;;;;5.80;4.80;;;;;;;11.27;51.70;100446.15;107121;1257;25334;-54
2023/12/25 06:12:12;;;;;;;6.00;5.00;;;;;;;11.28;51.55;100445.45;106879;1260;24237;-54
2023/12/25 06:14:39;;;;;;;5.10;4.60;;;;;;;11.28;51.49;100463.50;107152;1257;25347;-54
2023/12/25 06:17:07;;;;;;;6.10;4.60;;;;;;;11.28;51.48;100477.56;107087;1253;25417;-54
2023/12/25 06:19:34;;;;;;;6.60;5.20;;;;;;;11.28;51.44;100488.66;107161;1256;25488;-55
2023/12/25 06:22:01;;;;;;;5.10;4.60;;;;;;;11.29;51.37;100489.15;107111;1251;25375;-55
2023/12/25 06:24:28;;;;;;;5.00;4.50;;;;;;;11.29;51.38;100484.13;107035;1254;25484;-54
2023/12/25 06:26:55;;;;;;;6.20;5.20;;;;;;;11.29;51.39;100471.12;106765;1259;25418;-54
2023/12/25 06:29:22;;;;;;;5.80;5.20;;;;;;;11.29;51.26;100470.42;106842;1263;25344;-54
2023/12/25 06:31:50;;;;;;;5.30;4.30;;;;;;;11.29;51.26;100469.55;107044;1267;25484;-54
2023/12/25 06:34:16;;;;;;;6.10;4.50;;;;;;;11.29;51.20;100462.27;107127;1253;25365;-54
2023/12/25 06:36:44;;;;;;;5.40;4.80;;;;;;;11.30;51.21;100463.98;107147;1253;25507;-54
2023/12/25 06:39:11;;;;;;;5.70;5.00;;;;;;;11.30;51.26;100466.73;106823;1269;25356;-54
2023/12/25 06:41:38;;;;;;;5.00;4.50;;;;;;;11.31;51.16;100469.30;106784;1256;25330;-54
2023/12/25 06:44:06;;;;;;;7.00;5.30;;;;;;;11.32;51.19;100474.48;106820;1256;25367;-54
2023/12/25 06:46:33;;;;;;;5.60;4.80;;;;;;;11.33;51.11;100485.73;106830;1256;25353;-54
2023/12/25 06:48:59;;;;;;;7.90;5.20;;;;;;;11.34;51.10;100491.63;106836;1261;25459;-54
2023/12/25 06:51:27;;;;;;;5.00;4.40;;;;;;;11.34;51.05;100490.94;107131;1257;25337;-54
2023/12/25 06:53:54;;;;;;;5.90;5.20;;;;;;;11.35;51.00;100496.65;107029;1267;25408;-54
2023/12/25 06:56:23;;;;;;;6.10;5.20;;;;;;;11.35;50.90;100486.37;107218;1256;25372;-55
2023/12/25 06:58:50;;;;;;;5.90;4.90;;;;;;;11.35;50.94;100477.52;107173;1255;25325;-54
2023/12/25 07:01:23;;;;;;;5.90;5.40;;;;;;;11.37;50.92;100481.14;106856;1257;25367;-54
2023/12/25 07:03:50;;;;;;;6.10;4.40;;;;;;;11.38;50.90;100490.98;107195;1257;25329;-54
2023/12/25 07:06:17;;;;;;;5.00;4.00;;;;;;;11.40;50.87;100491.61;107070;1256;25411;-55
2023/12/25 07:08:45;;;;;;;6.30;4.70;;;;;;;11.43;50.69;100496.75;107067;1263;25389;-55
2023/12/25 07:11:13;;;;;;;6.30;5.10;;;;;;;11.45;50.66;100503.45;106716;1262;25487;-54
2023/12/25 07:13:42;;;;;;;5.40;4.30;;;;;;;11.47;50.53;100502.70;107088;1257;25366;-54
2023/12/25 07:16:20;;;;;;;6.60;5.20;;;;;;;11.48;50.42;100496.75;107137;1260;22542;-54
2023/12/25 07:18:52;;;;;;;7.70;4.70;;;;;;;11.51;50.36;100483.34;107150;1266;25334;-54
2023/12/25 07:21:19;;;;;;;6.00;4.50;;;;;;;11.51;50.31;100475.50;107102;1253;25347;-54
2023/12/25 07:23:46;;;;;;;5.10;4.60;;;;;;;11.53;50.24;100475.11;107043;1257;25497;-54
2023/12/25 07:26:15;;;;;;;5.90;4.50;;;;;;;11.54;50.16;100474.21;107182;1257;25383;-54
2023/12/25 07:28:42;;;;;;;4.90;4.40;;;;;;;11.55;50.09;100482.84;107043;1261;22532;-54
2023/12/25 07:31:09;;;;;;;5.00;4.30;;;;;;;11.56;50.10;100477.63;106865;1263;25474;-54
2023/12/25 07:33:36;;;;;;;5.40;4.80;;;;;;;11.57;50.08;100466.82;107095;1253;25369;-54
2023/12/25 07:36:04;;;;;;;5.70;4.60;;;;;;;11.58;50.03;100460.34;106861;1267;25365;-54
2023/12/25 07:38:31;;;;;;;7.00;4.90;;;;;;;11.59;50.02;100458.92;107056;1253;25328;-54
2023/12/25 07:40:58;;;;;;;6.40;4.80;;;;;;;11.60;49.99;100463.08;106452;1251;1003510;-54
2023/12/25 07:43:26;;;;;;;5.20;4.70;;;;;;;11.61;49.91;100471.73;107110;1263;25390;-54
2023/12/25 07:45:53;;;;;;;5.50;4.50;;;;;;;11.61;49.83;100472.27;107171;1250;25415;-54
2023/12/25 07:48:20;;;;;;;4.90;4.40;;;;;;;11.61;49.83;100476.77;106799;1266;25359;-55
2023/12/25 07:50:49;;;;;;;7.60;4.30;;;;;;;11.61;49.94;100469.98;107078;1253;22529;-54
2023/12/25 07:53:17;;;;;;;5.00;4.30;;;;;;;11.64;49.93;100475.11;107153;1256;25362;-54
2023/12/25 07:55:44;;;;;;;4.30;3.90;;;;;;;11.66;50.01;100473.66;107130;1254;25795;-54
2023/12/25 07:58:11;;;;;;;5.70;4.30;;;;;;;11.68;49.88;100477.98;106876;1266;25334;-54
2023/12/25 08:00:38;;;;;;;4.90;4.30;;;;;;;11.70;49.92;100476.86;107123;1254;25532;-54
2023/12/25 08:03:05;;;;;;;5.00;4.20;;;;;;;11.74;49.93;100482.66;107095;1254;25436;-54
2023/12/25 08:05:32;;;;;;;5.70;4.50;;;;;;;11.76;49.87;100488.13;106338;1256;1003048;-54
2023/12/25 08:08:00;;;;;;;5.80;3.90;;;;;;;11.77;49.79;100489.84;106927;1257;25366;-55
2023/12/25 08:10:28;;;;;;;7.10;4.70;;;;;;;11.80;49.79;100491.33;106366;1256;1003707;-55
2023/12/25 08:12:55;;;;;;;6.40;4.40;;;;;;;11.82;49.74;100487.78;107030;1257;25389;-54
2023/12/25 08:15:22;;;;;;;7.40;4.70;;;;;;;11.85;49.75;100482.84;106809;1267;25337;-54
2023/12/25 08:17:49;;;;;;;4.70;4.20;;;;;;;11.88;49.65;100485.01;106881;1260;25429;-54
2023/12/25 08:20:16;;;;;;;4.60;4.10;;;;;;;11.90;49.59;100476.57;107086;1264;25340;-55
2023/12/25 08:22:43;;;;;;;4.90;4.40;;;;;;;11.95;49.51;100464.08;107108;1256;25382;-54
2023/12/25 08:25:10;;;;;;;5.00;4.30;;;;;;;11.97;49.51;100461.23;106890;1257;25347;-55
2023/12/25 08:27:37;;;;;;;5.50;4.50;;;;;;;11.98;49.51;100465.04;107086;1255;24531;-54
2023/12/25 08:30:04;;;;;;;5.70;4.60;;;;;;;12.01;49.38;100462.85;107083;1257;25328;-54
2023/12/25 08:32:33;;;;;;;6.50;4.70;;;;;;;12.04;49.44;100460.32;107151;1263;25347;-55
2023/12/25 08:35:00;;;;;;;5.20;4.00;;;;;;;12.06;49.49;100457.11;107184;1256;25408;-55
2023/12/25 08:37:27;;;;;;;4.40;4.00;;;;;;;12.09;49.57;100461.35;107172;1256;25353;-55
2023/12/25 08:39:54;;;;;;;4.90;4.40;;;;;;;12.15;49.49;100457.70;107131;1257;25468;-55
2023/12/25 08:42:21;;;;;;;6.70;4.80;;;;;;;12.17;49.56;100450.30;107077;1256;25356;-55
2023/12/25 08:44:48;;;;;;;6.10;4.20;;;;;;;12.21;49.48;100444.09;107067;1256;25513;-56
2023/12/25 08:47:15;;;;;;;6.10;4.70;;;;;;;12.26;49.50;100446.88;107081;1257;25497;-56
2023/12/25 08:49:42;;;;;;;5.80;4.50;;;;;;;12.32;49.46;100448.09;107116;1266;22643;-54
2023/12/25 08:52:10;;;;;;;4.50;4.10;;;;;;;12.37;49.42;100441.83;106044;1266;1003304;-55
2023/12/25 08:54:37;;;;;;;4.60;4.10;;;;;;;12.41;49.39;100443.04;106766;1258;25334;-55
2023/12/25 08:57:04;;;;;;;4.90;4.40;;;;;;;12.47;49.33;100447.90;107100;1261;25518;-54
2023/12/25 08:59:31;;;;;;;4.90;4.40;;;;;;;12.54;49.43;100451.15;107137;1250;22759;-54
2023/12/25 09:01:59;;;;;;;6.00;4.70;;;;;;;12.60;49.38;100446.05;107127;1256;25405;-54
2023/12/25 09:04:26;;;;;;;5.60;4.50;;;;;;;12.67;49.45;100448.76;106420;1266;1003748;-54
2023/12/25 09:06:53;;;;;;;5.60;4.50;;;;;;;12.74;49.41;100450.60;106795;1267;25362;-54
2023/12/25 09:09:21;;;;;;;5.80;4.90;;;;;;;12.80;49.27;100459.11;107164;1266;22675;-54
2023/12/25 09:11:49;;;;;;;4.80;4.30;;;;;;;12.85;49.31;100466.92;107239;1255;25405;-54
2023/12/25 09:14:16;;;;;;;5.40;4.70;;;;;;;12.90;49.30;100467.24;107033;1270;25235;-54
2023/12/25 09:16:43;;;;;;;5.90;5.00;;;;;;;12.95;49.35;100456.80;107153;1267;25411;-54
2023/12/25 09:19:10;;;;;;;5.40;4.50;;;;;;;13.00;49.29;100447.88;107149;1267;25345;-55
2023/12/25 09:21:38;;;;;;;5.80;4.60;;;;;;;13.05;49.35;100454.72;107112;1257;25366;-55
2023/12/25 09:24:06;;;;;;;5.60;4.40;;;;;;;13.11;49.34;100454.88;107135;1253;22542;-54
2023/12/25 09:26:33;;;;;;;5.00;4.20;;;;;;;13.16;49.33;100463.23;106747;1259;22539;-54
2023/12/25 09:29:00;;;;;;;5.30;4.10;;;;;;;13.22;49.40;100464.57;107132;1266;25328;-54
2023/12/25 09:31:27;;;;;;;4.80;4.10;;;;;;;13.27;49.48;100460.87;107150;1266;25331;-54
2023/12/25 09:33:54;;;;;;;4.60;4.20;;;;;;;13.33;49.57;100465.35;107151;1257;25452;-54
2023/12/25 09:36:24;;;;;;;4.80;4.00;;;;;;;13.41;49.73;100468.88;107069;1264;25362;-54
2023/12/25 09:38:51;;;;;;;4.30;3.90;;;;;;;13.49;49.70;100464.92;107163;1257;25337;-54
2023/12/25 09:41:18;;;;;;;3.70;3.40;;;;;;;13.57;49.69;100463.73;107165;1256;25471;-56
2023/12/25 09:43:46;;;;;;;4.10;3.70;;;;;;;13.67;49.81;100467.70;107052;1269;22549;-54
2023/12/25 09:46:14;;;;;;;4.20;3.80;;;;;;;13.77;49.70;100472.01;107108;1263;25452;-55
2023/12/25 09:48:41;;;;;;;5.10;3.40;;;;;;;13.88;49.71;100479.23;106881;1258;22535;-55
2023/12/25 09:51:09;;;;;;;4.80;3.60;;;;;;;13.99;49.62;100474.77;106951;1262;25471;-54
2023/12/25 09:53:36;;;;;;;3.80;3.30;;;;;;;14.12;49.35;100473.91;106723;1267;22542;-56
2023/12/25 09:56:03;;;;;;;5.20;3.50;;;;;;;14.24;49.31;100479.71;107092;1256;22759;-54
2023/12/25 09:58:31;;;;;;;4.90;3.70;;;;;;;14.36;49.28;100478.70;106997;1256;25363;-54
2023/12/25 10:01:02;;;;;;;4.00;2.90;;;;;;;14.50;49.14;100470.93;107165;1256;25404;-54
2023/12/25 10:03:29;;;;;;;3.90;3.00;;;;;;;14.64;48.93;100460.73;107078;1257;25362;-54
2023/12/25 10:05:56;;;;;;;3.60;3.00;;;;;;;14.79;48.66;100461.51;106789;1266;25490;-54
2023/12/25 10:08:23;;;;;;;3.50;2.70;;;;;;;14.91;48.36;100464.48;107202;1266;25352;-54
2023/12/25 10:10:56;;;;;;;3.50;3.10;;;;;;;15.02;48.15;100458.73;107164;1257;25414;-54
2023/12/25 10:13:24;;;;;;;3.30;2.80;;;;;;;15.12;48.00;100468.04;107107;1257;23177;-55
2023/12/25 10:15:51;;;;;;;3.60;3.10;;;;;;;15.20;47.81;100468.36;107107;1253;23065;-54
2023/12/25 10:18:19;;;;;;;3.30;2.50;;;;;;;15.29;47.78;100464.64;107031;1256;25353;-54
2023/12/25 10:20:58;;;;;;;2.80;2.40;;;;;;;15.39;47.69;100448.64;107111;1257;23889;-54
2023/12/25 10:23:28;;;;;;;3.20;2.80;;;;;;;15.51;47.44;100438.49;107061;1257;25397;-55
2023/12/25 10:25:59;;;;;;;2.60;2.40;;;;;;;15.61;47.24;100440.11;107128;1267;24234;-55
2023/12/25 10:28:26;;;;;;;2.50;2.30;;;;;;;15.71;47.07;100449.93;107150;1253;25258;-56
2023/12/25 10:31:03;;;;;;;2.30;2.10;;;;;;;15.81;46.96;100445.59;107161;1253;22588;-55
2023/12/25 10:33:31;;;;;;;3.00;2.20;;;;;;;15.92;46.69;100435.95;107107;1254;22633;-55
2023/12/25 10:36:09;;;;;;;2.80;2.30;;;;;;;16.03;46.49;100428.41;107073;1257;25334;-54
2023/12/25 10:38:40;;;;;;;2.30;2.00;;;;;;;16.12;46.31;100411.66;107011;1258;22526;-55
2023/12/25 10:41:22;;;;;;;2.50;2.30;;;;;;;16.20;46.14;100410.74;107080;1253;25484;-55
2023/12/25 10:43:53;;;;;;;2.20;1.90;;;;;;;16.29;45.86;100427.44;106867;1274;23532;-54
2023/12/25 10:46:34;;;;;;;1.90;1.70;;;;;;;16.39;45.66;100430.66;107087;1270;25408;-54
2023/12/25 10:49:03;;;;;;;1.80;1.70;;;;;;;16.47;45.49;100427.77;107154;1256;25405;-55
2023/12/25 10:51:40;;;;;;;2.20;2.00;;;;;;;16.54;45.41;100427.98;107108;1255;25613;-55
2023/12/25 10:54:10;;;;;;;2.50;2.00;;;;;;;16.61;45.44;100435.82;106855;1267;25334;-55
2023/12/25 10:56:39;;;;;;;2.00;1.60;;;;;;;16.67;45.30;100439.22;107099;1253;22523;-55
2023/12/25 10:59:16;;;;;;;2.10;1.60;;;;;;;16.74;45.28;100443.93;107123;1256;23889;-55
2023/12/25 11:01:45;;;;;;;2.10;1.90;;;;;;;16.80;45.10;100441.30;107147;1264;25376;-55
2023/12/25 11:04:14;;;;;;;2.20;1.70;;;;;;;16.87;45.04;100443.21;106764;1262;25414;-55
2023/12/25 11:06:44;;;;;;;1.60;1.50;;;;;;;16.94;44.83;100450.04;107086;1267;25484;-55
2023/12/25 11:09:12;;;;;;;2.40;2.20;;;;;;;17.00;44.72;100453.20;106755;1267;25337;-55
2023/12/25 11:11:41;;;;;;;5.20;3.60;;;;;;;17.07;45.04;100452.98;107055;1257;25328;-55
2023/12/25 11:14:08;;;;;;;6.00;3.50;;;;;;;17.13;45.13;100457.27;106960;1266;25479;-55
2023/12/25 11:16:35;;;;;;;4.70;2.90;;;;;;;17.11;45.16;100456.48;106885;1268;25449;-55
2023/12/25 11:19:03;;;;;;;4.90;3.10;;;;;;;17.05;45.33;100451.55;106041;1272;1003496;-55